M I D A S
Marine Information and Data Acquisition System
Tripno 2243 of the Zeeleeuw from 2011-11-10 07:49:08 to 2011-11-10 16:26:49
Back to CruiseResearch ActivitiesStationsMapUnderway DataData graphs

EquipmentUnitsComment
TimeDGPSUTC
LatitudeDGPSDM.mWGS84
LongitudeDGPSDM.mWGS84
HeadingGyrodeg 
SOGDGPSknotsSpeed over ground
COGDGPSdegCourse over ground
DepthEcho soundermeters200 kHz
Missing or incorrect values are displayed as -999
Navigation data collected by the RV Zeeleeuw from 2011-11-10 07:20:09 to 2011-11-10 16:36:01
                                                                                    Next 1000 lines
Time Latitude Longitude Heading SOG COG Depth
2011-11-10 07:20:21 51°13.64 2°56.018 124 -999 25 -999
2011-11-10 07:20:25 51°13.639 2°56.018 124 -999 355 -999
2011-11-10 07:20:30 51°13.639 2°56.018 124 0.1 338 -999
2011-11-10 07:20:34 51°13.639 2°56.018 123.9 0.1 359 -999
2011-11-10 07:20:39 51°13.639 2°56.018 123.9 0.1 346 -999
2011-11-10 07:20:46 51°13.638 2°56.018 123.9 0.1 351 -999
2011-11-10 07:20:49 51°13.638 2°56.018 123.9 0.1 346 -999
2011-11-10 07:20:54 51°13.637 2°56.018 123.9 0.1 314 -999
2011-11-10 07:20:59 51°13.638 2°56.019 123.9 0.1 152 -999
2011-11-10 07:21:05 51°13.637 2°56.019 123.9 -999 185 -999
2011-11-10 07:21:10 51°13.637 2°56.019 123.9 0.1 337 -999
2011-11-10 07:21:14 51°13.637 2°56.019 123.9 0.1 16 -999
2011-11-10 07:21:19 51°13.636 2°56.019 123.9 0.2 141 -999
2011-11-10 07:21:25 51°13.635 2°56.018 123.9 -999 131 -999
2011-11-10 07:21:30 51°13.635 2°56.018 123.9 0.1 331 -999
2011-11-10 07:21:35 51°13.635 2°56.018 123.9 0.1 184 -999
2011-11-10 07:21:40 51°13.634 2°56.019 123.9 0.1 118 -999
2011-11-10 07:21:45 51°13.634 2°56.018 123.8 0.1 5 -999
2011-11-10 07:21:50 51°13.635 2°56.019 123.7 0.1 179 -999
2011-11-10 07:21:55 51°13.635 2°56.019 123.7 0.1 147 -999
2011-11-10 07:22:00 51°13.636 2°56.019 123.7 0.1 176 -999
2011-11-10 07:22:04 51°13.636 2°56.019 123.7 -999 16 -999
2011-11-10 07:22:10 51°13.637 2°56.019 123.7 0.1 305 -999
2011-11-10 07:22:15 51°13.637 2°56.019 123.7 -999 248 -999
2011-11-10 07:22:20 51°13.636 2°56.019 123.7 0.1 195 -999
2011-11-10 07:22:25 51°13.636 2°56.018 123.8 -999 208 -999
2011-11-10 07:22:31 51°13.636 2°56.018 123.8 0.1 311 -999
2011-11-10 07:22:35 51°13.636 2°56.018 123.9 0.1 329 -999
2011-11-10 07:22:40 51°13.635 2°56.018 123.9 -999 96 -999
2011-11-10 07:22:45 51°13.634 2°56.018 123.9 0.1 115 -999
2011-11-10 07:22:50 51°13.633 2°56.018 123.9 0.1 133 -999
2011-11-10 07:22:54 51°13.633 2°56.018 124 0.1 130 -999
2011-11-10 07:23:00 51°13.633 2°56.018 124 -999 139 -999
2011-11-10 07:23:05 51°13.634 2°56.018 123.7 0.1 306 -999
2011-11-10 07:23:10 51°13.634 2°56.018 123.6 0.2 317 -999
2011-11-10 07:23:14 51°13.634 2°56.018 123.4 0.1 241 -999
2011-11-10 07:23:20 51°13.635 2°56.018 123.4 0.1 302 -999
2011-11-10 07:23:25 51°13.635 2°56.018 123.2 0.1 317 -999
2011-11-10 07:23:29 51°13.635 2°56.018 123.2 0.1 322 -999
2011-11-10 07:23:35 51°13.635 2°56.018 123.2 0.1 130 -999
2011-11-10 07:23:39 51°13.635 2°56.018 123.2 0.1 77 -999
2011-11-10 07:23:45 51°13.635 2°56.018 123.2 0.1 19 -999
2011-11-10 07:23:50 51°13.635 2°56.018 123.4 0.1 341 -999
2011-11-10 07:23:55 51°13.635 2°56.018 123.5 0.1 322 -999
2011-11-10 07:24:00 51°13.635 2°56.018 123.6 0.1 346 -999
2011-11-10 07:24:04 51°13.634 2°56.018 123.7 -999 169 -999
2011-11-10 07:24:10 51°13.634 2°56.018 123.9 -999 143 -999
2011-11-10 07:24:15 51°13.635 2°56.018 124 -999 33 -999
2011-11-10 07:24:20 51°13.635 2°56.018 124.1 0.1 124 -999
2011-11-10 07:24:25 51°13.635 2°56.018 124.2 0.1 131 -999
2011-11-10 07:24:30 51°13.635 2°56.018 124.2 0.1 311 -999
2011-11-10 07:24:35 51°13.635 2°56.018 124.3 -999 258 -999
2011-11-10 07:24:40 51°13.635 2°56.018 124.3 -999 212 -999
2011-11-10 07:24:44 51°13.635 2°56.018 124.3 -999 264 -999
2011-11-10 07:24:50 51°13.636 2°56.018 124.3 -999 310 -999
2011-11-10 07:24:55 51°13.636 2°56.018 124.3 -999 68 -999
2011-11-10 07:25:00 51°13.636 2°56.018 124.1 0.1 124 -999
2011-11-10 07:25:05 51°13.636 2°56.018 124 0.1 121 -999
2011-11-10 07:25:10 51°13.636 2°56.018 123.7 -999 191 -999
2011-11-10 07:25:15 51°13.636 2°56.018 123.7 -999 133 -999
2011-11-10 07:25:20 51°13.636 2°56.018 123.6 -999 193 -999
2011-11-10 07:25:26 51°13.636 2°56.019 123.6 0.1 118 -999
2011-11-10 07:25:30 51°13.636 2°56.019 123.5 -999 75 -999
2011-11-10 07:25:34 51°13.636 2°56.018 123.5 0.1 317 -999
2011-11-10 07:25:40 51°13.637 2°56.018 123.5 0.1 335 -999
2011-11-10 07:25:45 51°13.637 2°56.018 123.5 -999 320 -999
2011-11-10 07:25:50 51°13.637 2°56.018 123.5 0.1 317 -999
2011-11-10 07:25:55 51°13.637 2°56.018 123.6 0.2 342 -999
2011-11-10 07:26:00 51°13.638 2°56.018 123.8 0.1 339 -999
2011-11-10 07:26:05 51°13.638 2°56.018 123.9 -999 113 -999
2011-11-10 07:26:10 51°13.638 2°56.018 123.9 -999 358 -999
2011-11-10 07:26:15 51°13.637 2°56.018 124.1 -999 8 -999
2011-11-10 07:26:20 51°13.637 2°56.018 124.1 -999 330 -999
2011-11-10 07:26:25 51°13.637 2°56.018 124.1 0.1 39 -999
2011-11-10 07:26:30 51°13.637 2°56.018 124.1 0.1 132 -999
2011-11-10 07:26:35 51°13.637 2°56.018 124.1 -999 17 -999
2011-11-10 07:26:40 51°13.637 2°56.018 124.1 0.1 341 -999
2011-11-10 07:26:45 51°13.637 2°56.018 124.1 0.1 351 -999
2011-11-10 07:26:50 51°13.637 2°56.018 124.1 0.1 96 -999
2011-11-10 07:26:55 51°13.637 2°56.018 124.1 -999 170 -999
2011-11-10 07:27:00 51°13.638 2°56.018 124.1 0.1 293 -999
2011-11-10 07:27:05 51°13.637 2°56.018 124 0.1 322 -999
2011-11-10 07:27:10 51°13.637 2°56.018 124 0.1 306 -999
2011-11-10 07:27:15 51°13.637 2°56.018 124 -999 80 -999
2011-11-10 07:27:20 51°13.636 2°56.018 123.9 -999 39 -999
2011-11-10 07:27:25 51°13.636 2°56.018 123.9 0.2 121 -999
2011-11-10 07:27:30 51°13.635 2°56.018 123.9 0.2 131 -999
2011-11-10 07:27:35 51°13.635 2°56.018 123.9 0.1 150 -999
2011-11-10 07:27:40 51°13.635 2°56.018 123.7 0.1 155 -999
2011-11-10 07:27:45 51°13.636 2°56.018 123.6 0.1 319 -999
2011-11-10 07:27:50 51°13.636 2°56.018 123.5 -999 354 -999
2011-11-10 07:27:55 51°13.636 2°56.018 123.5 0.1 165 -999
2011-11-10 07:28:00 51°13.636 2°56.018 123.5 -999 219 -999
2011-11-10 07:28:05 51°13.636 2°56.018 123.5 0.1 319 -999
2011-11-10 07:28:10 51°13.636 2°56.018 123.5 0.1 17 -999
2011-11-10 07:28:15 51°13.637 2°56.018 123.5 0.1 115 -999
2011-11-10 07:28:20 51°13.637 2°56.018 123.5 0.1 92 -999
2011-11-10 07:28:25 51°13.636 2°56.018 123.6 -999 20 -999
2011-11-10 07:28:30 51°13.636 2°56.018 123.7 -999 78 -999
2011-11-10 07:28:35 51°13.636 2°56.018 123.9 -999 313 -999
2011-11-10 07:28:40 51°13.636 2°56.018 123.9 -999 -999 -999
2011-11-10 07:28:45 51°13.636 2°56.018 124 0.1 336 -999
2011-11-10 07:28:50 51°13.636 2°56.018 124.1 0.1 353 -999
2011-11-10 07:28:55 51°13.636 2°56.018 124.1 -999 122 -999
2011-11-10 07:29:00 51°13.636 2°56.018 124.1 0.1 167 -999
2011-11-10 07:29:05 51°13.636 2°56.018 124.1 -999 210 -999
2011-11-10 07:29:10 51°13.636 2°56.018 124.1 0.1 130 -999
2011-11-10 07:29:15 51°13.636 2°56.018 124.1 0.1 152 -999
2011-11-10 07:29:20 51°13.636 2°56.018 124.1 0.1 238 -999
2011-11-10 07:29:25 51°13.636 2°56.018 124.1 -999 351 -999
2011-11-10 07:29:29 51°13.636 2°56.018 124.1 0.1 344 -999
2011-11-10 07:29:36 51°13.636 2°56.018 124 -999 52 -999
2011-11-10 07:29:41 51°13.637 2°56.018 124 -999 328 -999
2011-11-10 07:29:46 51°13.637 2°56.019 123.9 -999 71 -999
2011-11-10 07:29:51 51°13.638 2°56.019 123.9 0.1 76 -999
2011-11-10 07:29:56 51°13.638 2°56.019 123.9 0.1 168 -999
2011-11-10 07:30:01 51°13.638 2°56.019 123.9 0.1 173 -999
2011-11-10 07:30:06 51°13.638 2°56.019 123.9 -999 216 -999
2011-11-10 07:30:11 51°13.638 2°56.019 123.9 -999 14 -999
2011-11-10 07:30:16 51°13.638 2°56.019 123.9 0.1 346 -999
2011-11-10 07:30:21 51°13.638 2°56.019 123.9 -999 297 -999
2011-11-10 07:30:26 51°13.638 2°56.019 123.9 0.1 259 -999
2011-11-10 07:30:31 51°13.638 2°56.019 123.9 0.1 312 -999
2011-11-10 07:30:36 51°13.639 2°56.019 123.9 -999 280 -999
2011-11-10 07:30:41 51°13.639 2°56.019 123.9 -999 170 -999
2011-11-10 07:30:46 51°13.639 2°56.019 123.9 0.1 143 -999
2011-11-10 07:30:51 51°13.64 2°56.019 124 0.1 4 -999
2011-11-10 07:30:55 51°13.64 2°56.019 124.1 0.1 332 -999
2011-11-10 07:31:01 51°13.64 2°56.019 124.1 0.1 311 -999
2011-11-10 07:31:06 51°13.64 2°56.019 123.9 0.1 321 -999
2011-11-10 07:31:11 51°13.639 2°56.019 123.9 0.1 6 -999
2011-11-10 07:31:16 51°13.639 2°56.019 123.8 0.1 305 -999
2011-11-10 07:31:21 51°13.639 2°56.019 123.8 0.1 268 -999
2011-11-10 07:31:25 51°13.638 2°56.019 123.8 0.1 304 7.3
2011-11-10 07:31:30 51°13.637 2°56.019 123.8 0.2 337 7.3
2011-11-10 07:31:35 51°13.637 2°56.019 123.8 0.2 16 7.4
2011-11-10 07:31:40 51°13.637 2°56.019 123.8 -999 227 -999
2011-11-10 07:31:44 51°13.637 2°56.019 123.7 -999 64 7.2
2011-11-10 07:31:50 51°13.636 2°56.019 123.7 0.1 128 7.3
2011-11-10 07:31:55 51°13.636 2°56.019 123.7 -999 122 -999
2011-11-10 07:32:00 51°13.637 2°56.019 123.7 -999 55 5.6
2011-11-10 07:32:05 51°13.637 2°56.019 123.7 -999 307 7.3
2011-11-10 07:32:10 51°13.636 2°56.019 123.7 -999 93 7.5
2011-11-10 07:32:14 51°13.635 2°56.019 123.7 -999 336 7.5
2011-11-10 07:32:20 51°13.635 2°56.019 123.7 0.1 303 5.7
2011-11-10 07:32:24 51°13.635 2°56.019 123.7 0.1 347 7.5
2011-11-10 07:32:29 51°13.635 2°56.018 123.7 0.1 306 7.3
2011-11-10 07:32:34 51°13.635 2°56.018 123.7 0.1 344 -999
2011-11-10 07:32:39 51°13.634 2°56.018 123.7 0.1 115 5.6
2011-11-10 07:32:44 51°13.634 2°56.018 123.7 0.1 132 7.6
2011-11-10 07:32:48 51°13.634 2°56.019 123.7 0.1 121 7.3
2011-11-10 07:32:54 51°13.634 2°56.019 123.7 0.1 128 7.5
2011-11-10 07:32:59 51°13.635 2°56.019 123.8 0.1 109 7.5
2011-11-10 07:33:04 51°13.635 2°56.019 123.8 0.1 146 7.4
2011-11-10 07:33:09 51°13.635 2°56.019 123.8 0.1 124 7.3
2011-11-10 07:33:13 51°13.636 2°56.019 123.8 -999 93 7.3
2011-11-10 07:33:19 51°13.636 2°56.019 123.8 -999 155 -999
2011-11-10 07:33:23 51°13.636 2°56.019 123.7 0.1 54 5.7
2011-11-10 07:33:28 51°13.637 2°56.019 123.7 0.1 37 7.3
2011-11-10 07:33:33 51°13.637 2°56.019 123.7 0.1 27 7.4
2011-11-10 07:33:39 51°13.637 2°56.019 123.7 -999 185 7.3
2011-11-10 07:33:44 51°13.637 2°56.019 123.6 -999 35 7.3
2011-11-10 07:33:48 51°13.637 2°56.019 123.6 0.1 339 7.4
2011-11-10 07:33:53 51°13.637 2°56.019 123.6 0.1 327 7.5
2011-11-10 07:33:59 51°13.637 2°56.019 123.6 0.1 78 7.3
2011-11-10 07:34:04 51°13.636 2°56.019 123.7 0.1 60 7.3
2011-11-10 07:34:08 51°13.636 2°56.018 123.7 -999 328 7.3
2011-11-10 07:34:13 51°13.636 2°56.018 123.7 -999 330 7.5
2011-11-10 07:34:19 51°13.637 2°56.018 123.7 -999 340 7.8
2011-11-10 07:34:23 51°13.637 2°56.018 123.7 -999 337 7.3
2011-11-10 07:34:29 51°13.636 2°56.019 123.8 -999 320 7.6
2011-11-10 07:34:33 51°13.636 2°56.019 123.8 -999 296 7.4
2011-11-10 07:34:39 51°13.636 2°56.019 123.8 0.1 69 7.4
2011-11-10 07:34:43 51°13.637 2°56.019 123.8 -999 26 7.4
2011-11-10 07:34:48 51°13.636 2°56.019 123.8 -999 161 7.4
2011-11-10 07:34:53 51°13.636 2°56.019 123.8 -999 230 7.4
2011-11-10 07:34:58 51°13.637 2°56.018 123.8 0.1 317 -999
2011-11-10 07:35:03 51°13.637 2°56.018 123.8 0.1 311 7.3
2011-11-10 07:35:08 51°13.637 2°56.018 123.8 0.1 339 7.4
2011-11-10 07:35:13 51°13.636 2°56.018 123.8 -999 303 7.4
2011-11-10 07:35:18 51°13.636 2°56.019 123.8 0.1 137 7.5
2011-11-10 07:35:23 51°13.636 2°56.018 123.9 0.2 160 7.3
2011-11-10 07:35:28 51°13.635 2°56.018 124.2 0.2 142 7.3
2011-11-10 07:35:32 51°13.635 2°56.018 124.8 -999 227 7.3
2011-11-10 07:35:37 51°13.634 2°56.017 125 -999 148 7.3
2011-11-10 07:35:42 51°13.634 2°56.017 125 0.1 204 7.3
2011-11-10 07:35:47 51°13.634 2°56.017 125 -999 248 7.3
2011-11-10 07:35:52 51°13.634 2°56.017 125 -999 173 7.2
2011-11-10 07:35:56 51°13.634 2°56.017 125.1 -999 67 7.2
2011-11-10 07:36:02 51°13.634 2°56.018 125.3 -999 148 7.2
2011-11-10 07:36:07 51°13.635 2°56.017 125.5 -999 336 7.2
2011-11-10 07:36:13 51°13.635 2°56.018 125.7 -999 293 7.3
2011-11-10 07:36:17 51°13.635 2°56.018 125.7 -999 307 -999
2011-11-10 07:36:23 51°13.635 2°56.018 125.7 0.1 145 7.4
2011-11-10 07:36:28 51°13.636 2°56.018 125.7 -999 280 7.3
2011-11-10 07:36:33 51°13.636 2°56.018 125.7 0.1 332 7.3
2011-11-10 07:36:37 51°13.635 2°56.018 125.6 -999 25 5.6
2011-11-10 07:36:42 51°13.635 2°56.018 125.6 0.1 332 -999
2011-11-10 07:36:48 51°13.635 2°56.018 125.7 -999 66 7.3
2011-11-10 07:36:52 51°13.635 2°56.018 125.7 -999 85 7.1
2011-11-10 07:36:57 51°13.635 2°56.018 125.7 0.1 28 7.1
2011-11-10 07:37:02 51°13.635 2°56.018 125.7 -999 2 -999
2011-11-10 07:37:08 51°13.635 2°56.018 125.7 0.1 3 7.4
2011-11-10 07:37:13 51°13.635 2°56.018 125.7 0.1 348 7.3
2011-11-10 07:37:18 51°13.635 2°56.018 125.7 0.1 82 7.5
2011-11-10 07:37:23 51°13.635 2°56.018 125.6 -999 38 7.2
2011-11-10 07:37:28 51°13.635 2°56.018 125.5 0.1 270 7.2
2011-11-10 07:37:33 51°13.635 2°56.018 125.5 -999 64 7.3
2011-11-10 07:37:37 51°13.635 2°56.018 125.5 -999 29 7.4
2011-11-10 07:37:42 51°13.634 2°56.018 125.5 -999 324 7.4
2011-11-10 07:37:48 51°13.634 2°56.018 125.6 -999 149 -999
2011-11-10 07:37:53 51°13.635 2°56.018 125.6 0.1 300 -999
2011-11-10 07:37:59 51°13.635 2°56.018 125.6 0.1 5 -999
2011-11-10 07:38:05 51°13.635 2°56.018 125.6 -999 358 7.1
2011-11-10 07:38:09 51°13.635 2°56.018 125.6 -999 316 7.3
2011-11-10 07:38:14 51°13.635 2°56.019 125.7 -999 106 7.3
2011-11-10 07:38:19 51°13.635 2°56.019 125.7 0.1 131 7.2
2011-11-10 07:38:24 51°13.635 2°56.019 125.7 -999 131 7.2
2011-11-10 07:38:29 51°13.635 2°56.019 125.7 -999 348 -999
2011-11-10 07:38:34 51°13.635 2°56.019 125.7 0.1 316 7.4
2011-11-10 07:38:39 51°13.635 2°56.019 125.7 0.1 31 -999
2011-11-10 07:38:45 51°13.636 2°56.019 125.7 0.1 315 7.2
2011-11-10 07:38:49 51°13.636 2°56.019 125.6 0.1 312 7.3
2011-11-10 07:38:54 51°13.636 2°56.019 125.6 0.1 68 7.4
2011-11-10 07:38:59 51°13.636 2°56.019 125.6 -999 293 7.3
2011-11-10 07:39:05 51°13.636 2°56.019 125.5 0.1 319 7.5
2011-11-10 07:39:09 51°13.636 2°56.019 125.5 0.1 326 7.5
2011-11-10 07:39:14 51°13.636 2°56.019 125.5 -999 341 7.5
2011-11-10 07:39:19 51°13.636 2°56.019 125.5 -999 11 -999
2011-11-10 07:39:24 51°13.635 2°56.019 125.5 -999 95 7.3
2011-11-10 07:39:29 51°13.635 2°56.019 125.5 0.1 120 -999
2011-11-10 07:39:34 51°13.635 2°56.019 125.5 0.1 185 7.3
2011-11-10 07:39:39 51°13.635 2°56.019 125.6 -999 280 7.4
2011-11-10 07:39:44 51°13.635 2°56.019 125.7 -999 344 7.3
2011-11-10 07:39:49 51°13.635 2°56.019 125.7 -999 73 7.4
2011-11-10 07:39:53 51°13.635 2°56.019 125.7 -999 267 7.3
2011-11-10 07:39:58 51°13.635 2°56.019 125.7 -999 47 7.3
2011-11-10 07:40:03 51°13.635 2°56.019 125.8 -999 75 5.6
2011-11-10 07:40:08 51°13.635 2°56.019 125.8 -999 105 7.4
2011-11-10 07:40:13 51°13.635 2°56.019 125.8 0.1 94 7.3
2011-11-10 07:40:18 51°13.635 2°56.019 125.8 0.1 136 5.7
2011-11-10 07:40:23 51°13.635 2°56.019 125.8 -999 232 7.3
2011-11-10 07:40:28 51°13.635 2°56.019 125.7 0.1 38 7.3
2011-11-10 07:40:33 51°13.635 2°56.019 125.7 -999 32 7.4
2011-11-10 07:40:37 51°13.635 2°56.019 125.7 -999 7 7.3
2011-11-10 07:40:42 51°13.635 2°56.019 125.7 0.1 323 7.4
2011-11-10 07:40:48 51°13.635 2°56.019 125.7 -999 9 -999
2011-11-10 07:40:52 51°13.635 2°56.019 125.7 -999 210 7.3
2011-11-10 07:40:57 51°13.635 2°56.019 125.7 -999 332 7.6
2011-11-10 07:41:02 51°13.635 2°56.019 125.7 -999 334 7.4
2011-11-10 07:41:07 51°13.635 2°56.019 125.7 -999 67 7.4
2011-11-10 07:41:12 51°13.635 2°56.019 125.7 -999 233 7.4
2011-11-10 07:41:17 51°13.635 2°56.019 125.7 -999 295 7.4
2011-11-10 07:41:22 51°13.634 2°56.019 125.7 -999 64 5.6
2011-11-10 07:41:28 51°13.634 2°56.019 125.7 -999 344 7.3
2011-11-10 07:41:32 51°13.634 2°56.019 125.7 0.1 295 7.4
2011-11-10 07:41:37 51°13.634 2°56.019 125.7 0.1 313 7.4
2011-11-10 07:41:42 51°13.634 2°56.019 125.7 0.1 17 7.3
2011-11-10 07:41:47 51°13.633 2°56.019 125.7 -999 68 7.3
2011-11-10 07:41:52 51°13.633 2°56.019 125.7 0.1 16 5.6
2011-11-10 07:41:57 51°13.634 2°56.019 125.7 0.1 352 7.2
2011-11-10 07:42:02 51°13.634 2°56.019 125.9 -999 242 7.2
2011-11-10 07:42:07 51°13.634 2°56.019 126.1 -999 276 7.2
2011-11-10 07:42:13 51°13.634 2°56.019 126.2 0.1 343 -999
2011-11-10 07:42:17 51°13.634 2°56.019 125.9 0.1 29 7.2
2011-11-10 07:42:22 51°13.634 2°56.019 125.6 -999 125 7.4
2011-11-10 07:42:27 51°13.634 2°56.019 125.5 -999 213 7.4
2011-11-10 07:42:32 51°13.634 2°56.019 125.3 -999 202 7.2
2011-11-10 07:42:37 51°13.634 2°56.019 125.3 -999 257 7.3
2011-11-10 07:42:42 51°13.634 2°56.02 125.4 -999 325 7.1
2011-11-10 07:42:47 51°13.634 2°56.02 125.8 0.1 75 7.1
2011-11-10 07:42:52 51°13.634 2°56.019 126.2 -999 271 7.1
2011-11-10 07:42:57 51°13.634 2°56.019 126.4 0.1 238 7.2
2011-11-10 07:43:02 51°13.634 2°56.019 126.4 0.1 281 7.1
2011-11-10 07:43:08 51°13.634 2°56.019 126.3 0.1 334 7.1
2011-11-10 07:43:12 51°13.634 2°56.02 126.1 0.1 23 7.3
2011-11-10 07:43:17 51°13.634 2°56.02 125.9 -999 83 7.2
2011-11-10 07:43:23 51°13.634 2°56.019 125.8 -999 230 -999
2011-11-10 07:43:28 51°13.634 2°56.019 125.8 -999 355 5.7
2011-11-10 07:43:33 51°13.634 2°56.019 125.8 0.1 268 7.2
2011-11-10 07:43:37 51°13.634 2°56.02 125.8 0.1 21 7.3
2011-11-10 07:43:42 51°13.634 2°56.02 125.8 0.1 49 7.2
2011-11-10 07:43:47 51°13.633 2°56.019 125.8 0.1 219 7.2
2011-11-10 07:43:52 51°13.633 2°56.019 125.9 0.1 284 7.2
2011-11-10 07:43:57 51°13.633 2°56.019 126 0.1 336 7.2
2011-11-10 07:44:02 51°13.633 2°56.019 126 -999 348 7.1
2011-11-10 07:44:07 51°13.633 2°56.019 126 -999 26 7.1
2011-11-10 07:44:13 51°13.633 2°56.019 126 -999 351 7.2
2011-11-10 07:44:17 51°13.633 2°56.019 126 -999 334 7.1
2011-11-10 07:44:22 51°13.633 2°56.019 126 -999 245 7.1
2011-11-10 07:44:27 51°13.633 2°56.019 126 0.1 59 7.1
2011-11-10 07:44:32 51°13.633 2°56.019 126 -999 224 7.1
2011-11-10 07:44:37 51°13.632 2°56.019 126 -999 290 7.1
2011-11-10 07:44:42 51°13.631 2°56.019 126 -999 348 7.1
2011-11-10 07:44:47 51°13.631 2°56.019 126 -999 4 5.6
2011-11-10 07:44:52 51°13.632 2°56.019 126 -999 325 7.2
2011-11-10 07:44:57 51°13.631 2°56.019 126 -999 60 7.2
2011-11-10 07:45:02 51°13.631 2°56.019 126 0.1 62 7.1
2011-11-10 07:45:07 51°13.632 2°56.019 126 0.1 37 7.2
2011-11-10 07:45:12 51°13.632 2°56.019 126 -999 234 7.2
2011-11-10 07:45:17 51°13.633 2°56.019 126 -999 152 7.2
2011-11-10 07:45:22 51°13.633 2°56.019 126 -999 106 7.1
2011-11-10 07:45:27 51°13.633 2°56.019 126 -999 207 7.1
2011-11-10 07:45:33 51°13.633 2°56.019 126 -999 197 7.1
2011-11-10 07:45:37 51°13.633 2°56.019 126.2 -999 260 7.3
2011-11-10 07:45:42 51°13.634 2°56.019 126.3 -999 344 7.2
2011-11-10 07:45:48 51°13.634 2°56.019 126.4 0.1 37 7.1
2011-11-10 07:45:53 51°13.635 2°56.019 126.5 -999 155 7.1
2011-11-10 07:45:57 51°13.636 2°56.019 126.6 -999 91 7.1
2011-11-10 07:46:02 51°13.636 2°56.019 126.6 -999 42 7.1
2011-11-10 07:46:08 51°13.635 2°56.019 126.6 -999 69 7.1
2011-11-10 07:46:12 51°13.635 2°56.019 126.6 -999 353 7.1
2011-11-10 07:46:17 51°13.635 2°56.019 126.6 -999 40 7.2
2011-11-10 07:46:22 51°13.635 2°56.018 126.6 -999 258 7.2
2011-11-10 07:46:27 51°13.635 2°56.019 126.6 -999 276 7.1
2011-11-10 07:46:32 51°13.635 2°56.019 126.5 -999 214 7.1
2011-11-10 07:46:37 51°13.635 2°56.019 126.4 0.1 101 7.1
2011-11-10 07:46:42 51°13.635 2°56.019 126.4 0.1 71 7.2
2011-11-10 07:46:47 51°13.635 2°56.019 126.4 0.1 320 7.2
2011-11-10 07:46:53 51°13.634 2°56.018 126.4 -999 354 7.3
2011-11-10 07:46:57 51°13.634 2°56.019 126.3 0.1 85 7.2
2011-11-10 07:47:02 51°13.634 2°56.019 125.5 0.1 65 7.3
2011-11-10 07:47:07 51°13.633 2°56.019 124.4 0.1 168 7.2
2011-11-10 07:47:12 51°13.633 2°56.019 123.3 0.1 230 7.1
2011-11-10 07:47:17 51°13.633 2°56.019 122.5 0.1 207 7.1
2011-11-10 07:47:22 51°13.633 2°56.019 121.6 0.1 205 7.1
2011-11-10 07:47:27 51°13.633 2°56.019 120.8 0.1 185 7.1
2011-11-10 07:47:32 51°13.633 2°56.019 120 0.1 197 7
2011-11-10 07:47:37 51°13.633 2°56.019 119.1 0.1 201 7
2011-11-10 07:47:42 51°13.633 2°56.019 118.4 -999 137 7
2011-11-10 07:47:48 51°13.633 2°56.019 117.6 0.1 214 7
2011-11-10 07:47:52 51°13.633 2°56.018 116.8 0.1 213 7.1
2011-11-10 07:47:57 51°13.633 2°56.019 115.9 0.1 240 7.1
2011-11-10 07:48:02 51°13.633 2°56.019 115.1 0.1 185 7
2011-11-10 07:48:08 51°13.633 2°56.019 114.2 0.1 199 7.1
2011-11-10 07:48:13 51°13.633 2°56.019 113.3 0.1 168 7
2011-11-10 07:48:17 51°13.633 2°56.018 112.5 0.1 203 7.1
2011-11-10 07:48:22 51°13.633 2°56.019 111.8 0.1 168 7
2011-11-10 07:48:27 51°13.633 2°56.018 110.6 -999 165 7.1
2011-11-10 07:48:33 51°13.633 2°56.018 109.7 -999 170 7
2011-11-10 07:48:37 51°13.633 2°56.019 108.8 -999 156 7
2011-11-10 07:48:42 51°13.633 2°56.019 108 0.1 154 7
2011-11-10 07:48:47 51°13.633 2°56.018 107.1 -999 271 7.1
2011-11-10 07:48:52 51°13.633 2°56.018 106.2 0.2 271 7
2011-11-10 07:48:57 51°13.633 2°56.017 105.6 0.5 283 6.8
2011-11-10 07:49:02 51°13.633 2°56.015 105.3 1 281 6.9
2011-11-10 07:49:07 51°13.634 2°56.011 105.3 1.5 285 6.9
2011-11-10 07:49:12 51°13.635 2°56.008 105.3 1.9 285 7.1
2011-11-10 07:49:17 51°13.635 2°56.003 105.9 2.2 287 -999
2011-11-10 07:49:23 51°13.637 2°55.997 106.2 2.4 287 -999
2011-11-10 07:49:29 51°13.638 2°55.99 106.3 2.7 287 -999
2011-11-10 07:49:34 51°13.639 2°55.984 106.3 3 286 -999
2011-11-10 07:49:41 51°13.641 2°55.974 106.3 3.3 288 -999
2011-11-10 07:49:45 51°13.643 2°55.968 106.6 3.5 289 -999
2011-11-10 07:49:51 51°13.644 2°55.959 106.6 3.5 287 -999
2011-11-10 07:49:56 51°13.646 2°55.952 106.6 3.6 285 -999
2011-11-10 07:50:01 51°13.647 2°55.944 106.3 3.8 287 -999
2011-11-10 07:50:05 51°13.648 2°55.937 106.7 3.9 286 -999
2011-11-10 07:50:11 51°13.65 2°55.927 107.5 4 288 -999
2011-11-10 07:50:16 51°13.652 2°55.919 108.7 4 288 -999
2011-11-10 07:50:21 51°13.654 2°55.91 110.2 4.1 290 -999
2011-11-10 07:50:25 51°13.656 2°55.903 111.8 4.2 292 -999
2011-11-10 07:50:31 51°13.659 2°55.893 113.2 4.2 293 -999
2011-11-10 07:50:36 51°13.661 2°55.884 114.8 4.4 294 -999
2011-11-10 07:50:41 51°13.664 2°55.874 116.3 4.6 295 -999
2011-11-10 07:50:45 51°13.667 2°55.867 117.7 4.7 297 -999
2011-11-10 07:50:51 51°13.671 2°55.856 119.2 4.8 299 -999
2011-11-10 07:50:56 51°13.674 2°55.847 120.9 4.8 301 -999
2011-11-10 07:51:01 51°13.678 2°55.838 122.7 4.9 302 -999
2011-11-10 07:51:05 51°13.681 2°55.831 124.8 4.9 304 -999
2011-11-10 07:51:11 51°13.686 2°55.821 126.4 5 306 -999
2011-11-10 07:51:16 51°13.69 2°55.812 127.9 5 308 -999
2011-11-10 07:51:21 51°13.695 2°55.803 129.3 5 309 -999
2011-11-10 07:51:25 51°13.698 2°55.796 130.3 5.2 310 -999
2011-11-10 07:51:31 51°13.704 2°55.786 131.1 5.1 310 -999
2011-11-10 07:51:36 51°13.708 2°55.778 131.5 5.1 311 -999
2011-11-10 07:51:41 51°13.713 2°55.769 131.8 5.2 311 -999
2011-11-10 07:51:45 51°13.717 2°55.762 132.4 5.2 312 -999
2011-11-10 07:51:51 51°13.723 2°55.751 132.9 5.3 312 -999
2011-11-10 07:51:56 51°13.728 2°55.743 133.6 5.2 313 -999
2011-11-10 07:52:01 51°13.733 2°55.735 134.8 5.2 314 -999
2011-11-10 07:52:05 51°13.737 2°55.728 136.5 5.2 316 -999
2011-11-10 07:52:11 51°13.743 2°55.719 138.5 5.2 318 -999
2011-11-10 07:52:16 51°13.749 2°55.712 140.1 5.2 319 -999
2011-11-10 07:52:21 51°13.755 2°55.704 142.6 5.2 322 -999
2011-11-10 07:52:25 51°13.759 2°55.699 144.8 5.2 323 -999
2011-11-10 07:52:31 51°13.766 2°55.691 146.9 5.2 325 -999
2011-11-10 07:52:36 51°13.772 2°55.685 148.9 5.2 328 -999
2011-11-10 07:52:41 51°13.779 2°55.679 151 5.2 330 -999
2011-11-10 07:52:45 51°13.784 2°55.675 152.9 5.2 332 -999
2011-11-10 07:52:51 51°13.791 2°55.669 154.7 5.2 334 -999
2011-11-10 07:52:56 51°13.798 2°55.664 156.4 5.2 336 -999
2011-11-10 07:53:01 51°13.805 2°55.66 158.3 5.2 338 -999
2011-11-10 07:53:05 51°13.81 2°55.656 160 5.2 339 -999
2011-11-10 07:53:11 51°13.818 2°55.652 161.4 5.2 341 -999
2011-11-10 07:53:16 51°13.825 2°55.649 162.7 5.2 342 -999
2011-11-10 07:53:21 51°13.832 2°55.645 163.6 5.2 342 -999
2011-11-10 07:53:25 51°13.838 2°55.643 164.3 5.2 344 -999
2011-11-10 07:53:31 51°13.846 2°55.639 165.3 5.3 345 -999
2011-11-10 07:53:36 51°13.853 2°55.636 166 5.3 346 -999
2011-11-10 07:53:41 51°13.86 2°55.634 167.1 5.1 346 -999
2011-11-10 07:53:45 51°13.865 2°55.632 168.5 4.9 348 -999
2011-11-10 07:53:51 51°13.873 2°55.629 170.2 4.8 349 -999
2011-11-10 07:53:56 51°13.88 2°55.628 172.3 4.6 352 -999
2011-11-10 07:54:01 51°13.886 2°55.627 174.8 4.5 353 -999
2011-11-10 07:54:05 51°13.891 2°55.626 177.4 4.4 356 -999
2011-11-10 07:54:11 51°13.898 2°55.626 180.4 4.2 358 -999
2011-11-10 07:54:16 51°13.903 2°55.626 182.8 4 1 -999
2011-11-10 07:54:21 51°13.909 2°55.626 186.1 3.8 3 -999
2011-11-10 07:54:25 51°13.913 2°55.627 188.8 3.6 5 -999
2011-11-10 07:54:31 51°13.918 2°55.628 190.9 3.5 7 -999
2011-11-10 07:54:36 51°13.923 2°55.629 193.5 3.3 10 11
2011-11-10 07:54:41 51°13.927 2°55.631 195.6 3.2 12 10.9
2011-11-10 07:54:45 51°13.931 2°55.632 197.7 3.1 14 11.1
2011-11-10 07:54:50 51°13.935 2°55.634 200.4 3 16 11.2
2011-11-10 07:54:55 51°13.938 2°55.636 202.5 2.9 17 11
2011-11-10 07:55:00 51°13.942 2°55.639 205.1 2.8 21 11.1
2011-11-10 07:55:05 51°13.946 2°55.641 207.7 2.8 23 11
2011-11-10 07:55:10 51°13.949 2°55.644 210.8 2.7 26 11.1
2011-11-10 07:55:14 51°13.952 2°55.646 212.8 2.6 27 11.1
2011-11-10 07:55:19 51°13.955 2°55.648 215.5 2.6 29 11.4
2011-11-10 07:55:24 51°13.958 2°55.651 218.1 2.5 33 11.5
2011-11-10 07:55:29 51°13.961 2°55.654 220.7 2.5 36 11
2011-11-10 07:55:34 51°13.963 2°55.657 223.3 2.3 36 11.1
2011-11-10 07:55:39 51°13.966 2°55.66 225.8 2.3 38 11.1
2011-11-10 07:55:44 51°13.968 2°55.663 228 2 39 11.2
2011-11-10 07:55:49 51°13.969 2°55.665 230.1 1.5 40 11.1
2011-11-10 07:55:53 51°13.971 2°55.666 232.7 1 34 11.1
2011-11-10 07:55:58 51°13.971 2°55.666 236 0.5 16 11.2
2011-11-10 07:56:03 51°13.972 2°55.665 240.3 0.5 315 11.2
2011-11-10 07:56:08 51°13.972 2°55.664 245.6 0.7 280 11.1
2011-11-10 07:56:13 51°13.971 2°55.661 251.5 1.2 275 11.1
2011-11-10 07:56:17 51°13.971 2°55.658 259.5 1.5 275 11.3
2011-11-10 07:56:22 51°13.972 2°55.653 264.9 2 279 11.4
2011-11-10 07:56:28 51°13.973 2°55.647 271.5 2.5 284 11.3
2011-11-10 07:56:32 51°13.974 2°55.642 278.1 3.1 286 10.9
2011-11-10 07:56:37 51°13.976 2°55.635 285.3 3.6 293 11.1
2011-11-10 07:56:42 51°13.978 2°55.627 291.9 4.2 297 10.9
2011-11-10 07:56:47 51°13.982 2°55.618 296.9 4.7 302 10.9
2011-11-10 07:56:52 51°13.986 2°55.608 300.9 5.2 303 11.1
2011-11-10 07:56:57 51°13.99 2°55.599 304.9 5.5 307 11
2011-11-10 07:57:02 51°13.996 2°55.589 308.7 5.8 311 11.5
2011-11-10 07:57:07 51°14.001 2°55.579 311.8 6.2 313 11.4
2011-11-10 07:57:12 51°14.008 2°55.569 314.9 6.5 316 11.6
2011-11-10 07:57:17 51°14.015 2°55.559 317.6 6.9 317 11.6
2011-11-10 07:57:22 51°14.023 2°55.548 319.5 7.1 320 11.4
2011-11-10 07:57:27 51°14.031 2°55.538 321 7.4 321 11.4
2011-11-10 07:57:32 51°14.039 2°55.528 322.3 7.6 323 11.3
2011-11-10 07:57:37 51°14.048 2°55.518 324 7.7 324 11.2
2011-11-10 07:57:42 51°14.057 2°55.508 324.7 7.9 324 11
2011-11-10 07:57:47 51°14.066 2°55.498 325.6 8 326 10.7
2011-11-10 07:57:53 51°14.078 2°55.486 326.4 8.2 326 10.7
2011-11-10 07:57:57 51°14.085 2°55.478 326.6 8.2 327 10.6
2011-11-10 07:58:02 51°14.095 2°55.468 326.6 8.3 326 10.5
2011-11-10 07:58:07 51°14.105 2°55.458 327.3 8.4 328 10.4
2011-11-10 07:58:12 51°14.115 2°55.448 327.9 8.5 327 10.4
2011-11-10 07:58:17 51°14.124 2°55.437 327.2 8.5 326 10.4
2011-11-10 07:58:23 51°14.136 2°55.425 327 8.5 327 10.4
2011-11-10 07:58:29 51°14.148 2°55.413 327.6 8.5 328 -999
2011-11-10 07:58:33 51°14.157 2°55.405 328.4 8.5 328 -999
2011-11-10 07:58:40 51°14.171 2°55.391 328.5 8.8 328 -999
2011-11-10 07:58:45 51°14.181 2°55.38 328.2 8.8 328 -999
2011-11-10 07:58:51 51°14.194 2°55.368 328.8 8.9 328 -999
2011-11-10 07:58:56 51°14.205 2°55.358 329.2 9 329 -999
2011-11-10 07:59:01 51°14.216 2°55.347 329.1 9 329 -999
2011-11-10 07:59:05 51°14.224 2°55.34 329.6 9 330 -999
2011-11-10 07:59:11 51°14.237 2°55.327 329.6 9.1 329 -999
2011-11-10 07:59:16 51°14.248 2°55.317 329.9 9.1 331 -999
2011-11-10 07:59:21 51°14.259 2°55.307 330.6 9.1 330 -999
2011-11-10 07:59:25 51°14.268 2°55.299 330.6 9.1 331 -999
2011-11-10 07:59:31 51°14.281 2°55.287 330.3 9.2 329 10.3
2011-11-10 07:59:36 51°14.292 2°55.277 330.1 9.2 331 10.3
2011-11-10 07:59:41 51°14.303 2°55.267 330.3 9.3 330 -999
2011-11-10 07:59:45 51°14.313 2°55.258 330.4 9.4 330 -999
2011-11-10 07:59:51 51°14.326 2°55.246 330 9.4 330 -999
2011-11-10 07:59:56 51°14.337 2°55.235 330 9.5 330 -999
2011-11-10 08:00:01 51°14.349 2°55.224 329.4 9.5 329 -999
2011-11-10 08:00:05 51°14.358 2°55.216 329.1 9.6 329 -999
2011-11-10 08:00:11 51°14.371 2°55.202 327.9 9.6 326 -999
2011-11-10 08:00:16 51°14.382 2°55.19 325.9 9.6 326 -999
2011-11-10 08:00:21 51°14.393 2°55.177 324.7 9.7 324 -999
2011-11-10 08:00:25 51°14.402 2°55.167 324.5 9.7 325 10.4
2011-11-10 08:00:30 51°14.413 2°55.155 324.8 9.8 324 -999
2011-11-10 08:00:36 51°14.426 2°55.139 324.6 9.9 324 -999
2011-11-10 08:00:41 51°14.437 2°55.126 324.5 10 324 -999
2011-11-10 08:00:45 51°14.447 2°55.116 325.6 10.1 325 10.5
2011-11-10 08:00:50 51°14.458 2°55.104 326.2 10.2 325 10.5
2011-11-10 08:00:55 51°14.47 2°55.09 326 10.3 324 11
2011-11-10 08:01:00 51°14.481 2°55.077 324.8 10.4 324 11
2011-11-10 08:01:05 51°14.493 2°55.064 324.7 10.4 325 11.3
2011-11-10 08:01:09 51°14.503 2°55.053 325.2 10.4 324 11.2
2011-11-10 08:01:14 51°14.514 2°55.038 324.8 10.6 321 11.4
2011-11-10 08:01:19 51°14.525 2°55.023 324 10.7 318 11.4
2011-11-10 08:01:24 51°14.536 2°55.006 322.9 10.8 314 11.5
2011-11-10 08:01:29 51°14.547 2°54.989 319.9 10.8 315 11.7
2011-11-10 08:01:34 51°14.558 2°54.972 320 10.8 317 11.6
2011-11-10 08:01:39 51°14.569 2°54.956 322.5 10.9 318 11.8
2011-11-10 08:01:43 51°14.577 2°54.942 323.8 11.1 315 11.8
2011-11-10 08:01:48 51°14.588 2°54.924 321.4 11.1 310 11.6
2011-11-10 08:01:53 51°14.597 2°54.904 317 11.2 308 11.6
2011-11-10 08:01:58 51°14.606 2°54.884 313.4 11.3 305 11.4
2011-11-10 08:02:03 51°14.614 2°54.862 310.1 11.4 302 11.5
2011-11-10 08:02:08 51°14.622 2°54.84 307.1 11.6 299 11.3
2011-11-10 08:02:13 51°14.629 2°54.817 303.8 11.7 296 11.3
2011-11-10 08:02:17 51°14.634 2°54.798 300.5 11.6 293 11.2
2011-11-10 08:02:22 51°14.639 2°54.773 295.4 11.7 287 11.2
2011-11-10 08:02:27 51°14.642 2°54.748 289.4 11.7 280 11.2
2011-11-10 08:02:32 51°14.643 2°54.722 283.1 11.7 275 11.1
2011-11-10 08:02:37 51°14.643 2°54.696 276.7 11.7 270 10.9
2011-11-10 08:02:42 51°14.641 2°54.67 270.6 11.8 264 10.8
2011-11-10 08:02:47 51°14.638 2°54.645 264.3 11.8 258 10.3
2011-11-10 08:02:53 51°14.632 2°54.615 258.5 11.8 253 10.2
2011-11-10 08:02:57 51°14.627 2°54.595 253.5 11.9 250 10
2011-11-10 08:03:02 51°14.62 2°54.571 248.8 12 246 10.1
2011-11-10 08:03:07 51°14.613 2°54.547 244.7 12.1 243 9.8
2011-11-10 08:03:12 51°14.605 2°54.523 242.1 12.2 242 10
2011-11-10 08:03:17 51°14.597 2°54.499 241.2 12.4 242 10
2011-11-10 08:03:22 51°14.588 2°54.475 239.8 12.6 240 9.9
2011-11-10 08:03:27 51°14.579 2°54.45 238.9 12.8 241 9.8
2011-11-10 08:03:32 51°14.57 2°54.425 239.1 13 241 9.8
2011-11-10 08:03:37 51°14.562 2°54.399 240.2 13.1 243 9.7
2011-11-10 08:03:42 51°14.553 2°54.374 241.4 13.1 243 9.6
2011-11-10 08:03:48 51°14.543 2°54.343 241.6 13.2 241 9.6
2011-11-10 08:03:52 51°14.535 2°54.323 240.3 13.2 239 9.5
2011-11-10 08:03:57 51°14.525 2°54.298 238.6 13.2 238 9.6
2011-11-10 08:04:02 51°14.515 2°54.274 236.6 13.2 236 9.5
2011-11-10 08:04:08 51°14.502 2°54.245 234.3 13.3 234 9.6
2011-11-10 08:04:12 51°14.494 2°54.227 232.7 13.3 233 9.5
2011-11-10 08:04:17 51°14.483 2°54.203 231.6 13.3 233 9.4
2011-11-10 08:04:22 51°14.471 2°54.18 230.9 13.3 232 9.3
2011-11-10 08:04:27 51°14.46 2°54.157 230.3 13.3 232 9.4
2011-11-10 08:04:33 51°14.446 2°54.129 230.1 13.3 232 9.3
2011-11-10 08:04:37 51°14.438 2°54.11 229.9 13.3 232 9.3
2011-11-10 08:04:42 51°14.426 2°54.087 230 13.3 232 9.3
2011-11-10 08:04:47 51°14.415 2°54.064 230.2 13.3 233 9.3
2011-11-10 08:04:52 51°14.404 2°54.041 230.8 13.3 232 9.3
2011-11-10 08:04:57 51°14.393 2°54.017 231 13.3 233 9.2
2011-11-10 08:05:02 51°14.381 2°53.994 231.1 13.3 232 9.2
2011-11-10 08:05:07 51°14.37 2°53.97 230.9 13.3 232 9.2
2011-11-10 08:05:12 51°14.359 2°53.947 230.9 13.3 232 9.2
2011-11-10 08:05:17 51°14.348 2°53.924 231 13.3 233 9.2
2011-11-10 08:05:22 51°14.337 2°53.9 231.1 13.3 233 9.2
2011-11-10 08:05:27 51°14.326 2°53.877 231.3 13.3 232 9.3
2011-11-10 08:05:32 51°14.314 2°53.853 230.9 13.3 232 9.2
2011-11-10 08:05:37 51°14.303 2°53.831 230.2 13.3 231 9.2
2011-11-10 08:05:42 51°14.291 2°53.808 229.2 13.3 231 9.2
2011-11-10 08:05:47 51°14.279 2°53.786 228.1 13.3 229 9.1
2011-11-10 08:05:53 51°14.264 2°53.759 227.3 13.3 229 9.1
2011-11-10 08:05:57 51°14.255 2°53.741 227.2 13.3 229 9
2011-11-10 08:06:02 51°14.242 2°53.719 226.6 13.3 228 9.1
2011-11-10 08:06:08 51°14.228 2°53.693 226.3 13.3 228 9.1
2011-11-10 08:06:13 51°14.215 2°53.671 226.1 13.3 228 9
2011-11-10 08:06:17 51°14.206 2°53.653 226.1 13.3 229 9.1
2011-11-10 08:06:22 51°14.194 2°53.631 226.5 13.3 228 9.1
2011-11-10 08:06:27 51°14.181 2°53.61 226.6 13.3 229 9
2011-11-10 08:06:33 51°14.167 2°53.583 226.5 13.3 229 9.1
2011-11-10 08:06:37 51°14.157 2°53.566 226.5 13.3 228 9
2011-11-10 08:06:42 51°14.145 2°53.544 226.3 13.3 228 9.1
2011-11-10 08:06:47 51°14.133 2°53.522 226.7 13.2 229 9.1
2011-11-10 08:06:52 51°14.121 2°53.5 227.2 13.3 229 9.1
2011-11-10 08:06:57 51°14.108 2°53.478 227.2 13.3 229 9.1
2011-11-10 08:07:02 51°14.096 2°53.456 227.2 13.2 229 9.1
2011-11-10 08:07:07 51°14.085 2°53.433 227.8 13.3 230 9.1
2011-11-10 08:07:12 51°14.073 2°53.41 228.4 13.3 231 9.1
2011-11-10 08:07:17 51°14.061 2°53.387 229.4 13.3 232 9
2011-11-10 08:07:22 51°14.05 2°53.364 230 13.3 232 9.1
2011-11-10 08:07:27 51°14.039 2°53.341 230.7 13.3 233 9
2011-11-10 08:07:32 51°14.028 2°53.318 231.3 13.3 233 9.1
2011-11-10 08:07:37 51°14.017 2°53.294 231.3 13.3 233 9.1
2011-11-10 08:07:42 51°14.005 2°53.271 231.5 13.3 233 9.1
2011-11-10 08:07:47 51°13.994 2°53.248 231.3 13.3 232 9.1
2011-11-10 08:07:53 51°13.981 2°53.22 231.1 13.3 232 9.2
2011-11-10 08:07:57 51°13.972 2°53.201 230.9 13.3 232 9.2
2011-11-10 08:08:02 51°13.96 2°53.178 230.7 13.3 232 9.2
2011-11-10 08:08:07 51°13.949 2°53.154 230.7 13.3 233 9.2
2011-11-10 08:08:12 51°13.938 2°53.131 230.7 13.3 232 9.2
2011-11-10 08:08:17 51°13.926 2°53.108 230.2 13.3 232 9.2
2011-11-10 08:08:22 51°13.915 2°53.085 230.1 13.3 231 9.2
2011-11-10 08:08:27 51°13.903 2°53.063 229.6 13.3 231 9.3
2011-11-10 08:08:32 51°13.891 2°53.04 229.3 13.3 231 9.2
2011-11-10 08:08:37 51°13.879 2°53.018 228.9 13.3 230 9.3
2011-11-10 08:08:42 51°13.868 2°52.995 228.7 13.3 230 9.3
2011-11-10 08:08:47 51°13.856 2°52.972 228.5 13.3 230 9.3
2011-11-10 08:08:53 51°13.842 2°52.945 228.2 13.3 230 9.3
2011-11-10 08:08:57 51°13.832 2°52.927 228 13.3 230 9.3
2011-11-10 08:09:02 51°13.82 2°52.905 227.9 13.3 230 9.4
2011-11-10 08:09:07 51°13.808 2°52.883 227.7 13.3 229 9.4
2011-11-10 08:09:12 51°13.796 2°52.86 227.7 13.3 230 9.4
2011-11-10 08:09:17 51°13.784 2°52.837 228.3 13.4 231 9.4
2011-11-10 08:09:22 51°13.773 2°52.814 229.4 13.3 232 9.4
2011-11-10 08:09:27 51°13.762 2°52.79 229.8 13.3 232 9.4
2011-11-10 08:09:32 51°13.75 2°52.767 230.4 13.4 233 9.4
2011-11-10 08:09:37 51°13.739 2°52.743 231 13.4 233 9.4
2011-11-10 08:09:42 51°13.729 2°52.719 231.7 13.4 234 9.4
2011-11-10 08:09:47 51°13.719 2°52.694 233.9 13.4 238 9.5
2011-11-10 08:09:53 51°13.706 2°52.665 235.4 13.4 237 9.5
2011-11-10 08:09:57 51°13.698 2°52.645 236 13.4 237 9.5
2011-11-10 08:10:02 51°13.689 2°52.619 236.3 13.4 238 9.5
2011-11-10 08:10:07 51°13.679 2°52.594 237.1 13.4 240 9.5
2011-11-10 08:10:12 51°13.67 2°52.568 238.4 13.4 240 9.6
2011-11-10 08:10:17 51°13.66 2°52.542 239.6 13.5 240 9.6
2011-11-10 08:10:22 51°13.651 2°52.516 239.6 13.5 241 9.7
2011-11-10 08:10:27 51°13.643 2°52.49 240.5 13.5 242 9.7
2011-11-10 08:10:32 51°13.634 2°52.463 241.1 13.5 242 9.7
2011-11-10 08:10:37 51°13.625 2°52.437 241.7 13.5 243 9.7
2011-11-10 08:10:42 51°13.617 2°52.41 242.6 13.5 244 9.8
2011-11-10 08:10:48 51°13.607 2°52.378 243.8 13.4 244 9.8
2011-11-10 08:10:53 51°13.599 2°52.351 243.9 13.5 244 9.7
2011-11-10 08:10:57 51°13.593 2°52.33 243.9 13.4 244 9.7
2011-11-10 08:11:02 51°13.585 2°52.303 243.7 13.5 244 9.8
2011-11-10 08:11:07 51°13.577 2°52.276 244.1 13.4 245 9.8
2011-11-10 08:11:12 51°13.569 2°52.249 244.9 13.4 246 9.8
2011-11-10 08:11:17 51°13.562 2°52.222 245.4 13.4 246 9.8
2011-11-10 08:11:22 51°13.554 2°52.195 245.6 13.5 245 9.9
2011-11-10 08:11:27 51°13.546 2°52.168 245.4 13.5 245 9.9
2011-11-10 08:11:32 51°13.538 2°52.141 245.1 13.4 244 9.9
2011-11-10 08:11:37 51°13.53 2°52.115 244.6 13.5 245 9.9
2011-11-10 08:11:42 51°13.522 2°52.088 244.3 13.4 244 9.9
2011-11-10 08:11:47 51°13.514 2°52.062 243.8 13.4 244 10
2011-11-10 08:11:52 51°13.506 2°52.035 243.9 13.4 244 9.9
2011-11-10 08:11:57 51°13.497 2°52.008 243.8 13.4 244 10
2011-11-10 08:12:02 51°13.489 2°51.982 243.2 13.3 244 9.9
2011-11-10 08:12:07 51°13.481 2°51.955 243.5 13.4 244 10
2011-11-10 08:12:12 51°13.473 2°51.929 243.6 13.4 243 10
2011-11-10 08:12:17 51°13.464 2°51.902 243.3 13.3 243 10
2011-11-10 08:12:22 51°13.456 2°51.876 242.8 13.4 242 10.1
2011-11-10 08:12:27 51°13.447 2°51.85 241.9 13.4 242 10.1
2011-11-10 08:12:32 51°13.438 2°51.824 241.2 13.5 242 10.1
2011-11-10 08:12:37 51°13.429 2°51.797 241 13.5 242 10.1
2011-11-10 08:12:42 51°13.42 2°51.771 241 13.4 242 10.2
2011-11-10 08:12:47 51°13.412 2°51.745 241 13.4 242 10.2
2011-11-10 08:12:53 51°13.401 2°51.714 241.1 13.4 242 10.2
2011-11-10 08:12:57 51°13.394 2°51.693 241.3 13.5 242 10.2
2011-11-10 08:13:02 51°13.385 2°51.666 241.5 13.4 242 10.2
2011-11-10 08:13:07 51°13.377 2°51.64 241.6 13.4 243 10.2
2011-11-10 08:13:12 51°13.368 2°51.614 241.8 13.5 243 10.2
2011-11-10 08:13:17 51°13.36 2°51.587 241.9 13.5 243 10.2
2011-11-10 08:13:22 51°13.351 2°51.56 242 13.5 243 10.3
2011-11-10 08:13:27 51°13.343 2°51.534 242.1 13.4 243 10.3
2011-11-10 08:13:33 51°13.332 2°51.502 242.1 13.5 243 10.3
2011-11-10 08:13:37 51°13.326 2°51.481 242 13.4 243 10.3
2011-11-10 08:13:42 51°13.317 2°51.455 242 13.4 242 10.3
2011-11-10 08:13:47 51°13.308 2°51.428 241.9 13.5 243 10.3
2011-11-10 08:13:52 51°13.3 2°51.402 241.8 13.5 242 10.4
2011-11-10 08:13:57 51°13.291 2°51.375 241.6 13.5 242 10.3
2011-11-10 08:14:02 51°13.282 2°51.349 240.8 13.5 242 10.4
2011-11-10 08:14:07 51°13.273 2°51.324 240.2 13.4 240 10.3
2011-11-10 08:14:12 51°13.263 2°51.298 239.4 13.4 240 10.4
2011-11-10 08:14:17 51°13.254 2°51.272 238.9 13.5 240 10.4
2011-11-10 08:14:22 51°13.244 2°51.246 238.6 13.5 240 10.4
2011-11-10 08:14:27 51°13.235 2°51.221 238.2 13.5 239 10.4
2011-11-10 08:14:32 51°13.225 2°51.195 237.8 13.5 239 10.4
2011-11-10 08:14:37 51°13.215 2°51.17 237.4 13.5 239 10.5
2011-11-10 08:14:42 51°13.206 2°51.144 237.6 13.5 239 10.5
2011-11-10 08:14:47 51°13.196 2°51.119 237.9 13.5 239 10.5
2011-11-10 08:14:52 51°13.187 2°51.093 238.2 13.4 240 10.5
2011-11-10 08:14:57 51°13.178 2°51.068 238.7 13.4 240 10.5
2011-11-10 08:15:02 51°13.168 2°51.042 238.8 13.5 240 10.5
2011-11-10 08:15:07 51°13.159 2°51.016 238.9 13.4 240 10.5
2011-11-10 08:15:12 51°13.149 2°50.99 239 13.4 239 10.5
2011-11-10 08:15:17 51°13.14 2°50.965 238.8 13.4 240 10.5
2011-11-10 08:15:22 51°13.131 2°50.939 238.8 13.4 240 10.5
2011-11-10 08:15:28 51°13.12 2°50.908 238.8 13.5 240 10.5
2011-11-10 08:15:33 51°13.11 2°50.882 238.8 13.4 240 10.5
2011-11-10 08:15:37 51°13.103 2°50.862 238.5 13.4 239 10.5
2011-11-10 08:15:42 51°13.093 2°50.836 238.4 13.4 240 10.6
2011-11-10 08:15:47 51°13.084 2°50.81 238.6 13.5 241 10.5
2011-11-10 08:15:52 51°13.075 2°50.783 238.9 13.5 242 10.5
2011-11-10 08:15:57 51°13.066 2°50.758 239.7 13.5 242 10.6
2011-11-10 08:16:02 51°13.058 2°50.732 240.7 13.4 243 10.5
2011-11-10 08:16:07 51°13.049 2°50.705 241.3 13.5 243 10.6
2011-11-10 08:16:12 51°13.041 2°50.679 241.9 13.4 243 10.6
2011-11-10 08:16:17 51°13.032 2°50.652 242.3 13.4 244 10.6
2011-11-10 08:16:22 51°13.025 2°50.625 243 13.5 244 10.7
2011-11-10 08:16:27 51°13.016 2°50.598 243.2 13.5 244 10.7
2011-11-10 08:16:32 51°13.008 2°50.572 243 13.5 244 10.8
2011-11-10 08:16:37 51°13 2°50.545 242.9 13.4 244 10.8
2011-11-10 08:16:42 51°12.991 2°50.519 242.8 13.5 244 10.8
2011-11-10 08:16:47 51°12.983 2°50.492 242.5 13.5 243 10.8
2011-11-10 08:16:52 51°12.974 2°50.466 241.9 13.5 243 10.7
2011-11-10 08:16:57 51°12.965 2°50.439 241.3 13.4 242 10.8
2011-11-10 08:17:02 51°12.957 2°50.413 241.2 13.5 243 10.8
2011-11-10 08:17:08 51°12.947 2°50.381 241.3 13.5 242 10.8
2011-11-10 08:17:12 51°12.94 2°50.36 241.3 13.5 243 10.8
2011-11-10 08:17:17 51°12.931 2°50.334 241.3 13.5 243 10.8
2011-11-10 08:17:22 51°12.923 2°50.307 241.3 13.5 242 10.8
2011-11-10 08:17:27 51°12.914 2°50.281 241.3 13.5 243 10.9
2011-11-10 08:17:33 51°12.904 2°50.249 241.5 13.5 243 10.9
2011-11-10 08:17:37 51°12.897 2°50.228 241.5 13.5 242 10.9
2011-11-10 08:17:42 51°12.888 2°50.201 241.2 13.5 242 10.9
2011-11-10 08:17:47 51°12.879 2°50.175 241.1 13.5 242 10.9
2011-11-10 08:17:53 51°12.869 2°50.144 240.9 13.4 242 10.9
2011-11-10 08:17:57 51°12.862 2°50.122 240.8 13.5 242 10.9
2011-11-10 08:18:02 51°12.853 2°50.096 240.9 13.6 242 10.9
2011-11-10 08:18:07 51°12.845 2°50.069 240.9 13.5 243 10.9
2011-11-10 08:18:12 51°12.836 2°50.043 240.9 13.5 242 10.9
2011-11-10 08:18:17 51°12.827 2°50.016 240.8 13.6 243 11
2011-11-10 08:18:22 51°12.819 2°49.99 241 13.5 243 11
2011-11-10 08:18:27 51°12.81 2°49.964 241.1 13.5 242 11
2011-11-10 08:18:32 51°12.801 2°49.937 241.1 13.6 242 11
2011-11-10 08:18:37 51°12.792 2°49.911 240.8 13.6 242 11
2011-11-10 08:18:42 51°12.783 2°49.884 240.4 13.5 242 11
2011-11-10 08:18:47 51°12.774 2°49.858 240.1 13.5 241 11.1
2011-11-10 08:18:52 51°12.765 2°49.832 239.7 13.5 241 11.1
2011-11-10 08:18:57 51°12.756 2°49.806 239.5 13.5 241 11
2011-11-10 08:19:02 51°12.746 2°49.78 239 13.5 239 11.1
2011-11-10 08:19:07 51°12.737 2°49.755 237.5 13.5 238 10.9
2011-11-10 08:19:12 51°12.727 2°49.73 236.2 13.5 238 11.1
2011-11-10 08:19:17 51°12.717 2°49.704 236.5 13.5 240 10.8
2011-11-10 08:19:22 51°12.708 2°49.679 237.4 13.5 239 11.1
2011-11-10 08:19:28 51°12.696 2°49.647 237.7 13.5 240 11.2
2011-11-10 08:19:32 51°12.689 2°49.627 238.1 13.4 240 11.1
2011-11-10 08:19:37 51°12.679 2°49.601 238.3 13.5 240 11.2
2011-11-10 08:19:42 51°12.67 2°49.575 238.3 13.5 240 11.2
2011-11-10 08:19:48 51°12.659 2°49.545 238.5 13.5 240 11.2
2011-11-10 08:19:53 51°12.649 2°49.519 238.5 13.5 239 11.2
2011-11-10 08:19:57 51°12.642 2°49.498 238 13.5 239 11.2
2011-11-10 08:20:02 51°12.633 2°49.472 237.9 13.5 240 11.2
2011-11-10 08:20:07 51°12.623 2°49.446 238.5 13.5 240 11.2
2011-11-10 08:20:13 51°12.612 2°49.415 238.9 13.5 241 11.2
2011-11-10 08:20:17 51°12.606 2°49.394 239.7 13.5 242 11.2
2011-11-10 08:20:22 51°12.597 2°49.367 240.5 13.5 243 11.3
2011-11-10 08:20:27 51°12.589 2°49.341 241.4 13.5 244 11.2
2011-11-10 08:20:32 51°12.58 2°49.314 242.1 13.5 244 11.3
2011-11-10 08:20:37 51°12.572 2°49.288 242.5 13.5 244 11.3
2011-11-10 08:20:42 51°12.564 2°49.261 242.6 13.5 244 11.3
2011-11-10 08:20:47 51°12.556 2°49.234 242.6 13.5 244 11.3
2011-11-10 08:20:52 51°12.547 2°49.207 242.6 13.5 244 11.3
2011-11-10 08:20:57 51°12.539 2°49.181 242.8 13.5 244 11.3
2011-11-10 08:21:02 51°12.531 2°49.154 243.2 13.4 244 11.3
2011-11-10 08:21:07 51°12.523 2°49.127 242.9 13.5 243 11.5
2011-11-10 08:21:12 51°12.515 2°49.1 242.7 13.5 244 11.4
2011-11-10 08:21:17 51°12.506 2°49.074 242.5 13.5 243 11.5
2011-11-10 08:21:22 51°12.498 2°49.047 242.2 13.5 243 11.5
2011-11-10 08:21:27 51°12.489 2°49.021 242.1 13.5 243 11.5
2011-11-10 08:21:32 51°12.481 2°48.994 241.8 13.5 243 11.4
2011-11-10 08:21:37 51°12.472 2°48.968 241.8 13.5 243 11.3
2011-11-10 08:21:42 51°12.464 2°48.941 241.7 13.4 243 11.5
2011-11-10 08:21:48 51°12.453 2°48.91 241.5 13.5 242 11.4
2011-11-10 08:21:53 51°12.445 2°48.883 241.5 13.6 243 11.4
2011-11-10 08:21:57 51°12.438 2°48.862 241.2 13.4 242 11.4
2011-11-10 08:22:02 51°12.429 2°48.837 240.8 13.4 242 11.5
2011-11-10 08:22:07 51°12.42 2°48.81 240.3 13.5 241 11.5
2011-11-10 08:22:12 51°12.411 2°48.784 239.6 13.5 240 11.4
2011-11-10 08:22:17 51°12.401 2°48.758 238.7 13.5 240 11.4
2011-11-10 08:22:22 51°12.392 2°48.733 238.3 13.5 239 11.5
2011-11-10 08:22:27 51°12.382 2°48.707 238 13.5 239 11.4
2011-11-10 08:22:33 51°12.371 2°48.677 237.6 13.4 239 11.5
2011-11-10 08:22:37 51°12.363 2°48.656 237.8 13.5 240 11.4
2011-11-10 08:22:42 51°12.354 2°48.63 238.4 13.5 240 11.4
2011-11-10 08:22:47 51°12.345 2°48.604 238.6 13.5 240 11.5
2011-11-10 08:22:52 51°12.335 2°48.578 238.8 13.5 240 11.5
2011-11-10 08:22:57 51°12.326 2°48.552 238.8 13.5 240 11.5
2011-11-10 08:23:02 51°12.317 2°48.526 238.8 13.5 240 11.4
2011-11-10 08:23:07 51°12.308 2°48.5 238.6 13.5 241 11.5
2011-11-10 08:23:12 51°12.298 2°48.474 238.5 13.6 240 11.4
2011-11-10 08:23:17 51°12.289 2°48.448 238.5 13.6 240 11.6
2011-11-10 08:23:22 51°12.28 2°48.422 238.5 13.5 240 11.5
2011-11-10 08:23:27 51°12.27 2°48.396 238.5 13.5 240 11.4
2011-11-10 08:23:32 51°12.261 2°48.37 238.5 13.5 240 11.5
2011-11-10 08:23:37 51°12.252 2°48.344 238.8 13.5 241 11.4
2011-11-10 08:23:42 51°12.243 2°48.318 238.9 13.4 241 11.7
2011-11-10 08:23:48 51°12.232 2°48.287 239.6 13.4 241 11.5
2011-11-10 08:23:53 51°12.224 2°48.26 239.6 13.4 242 11.5
2011-11-10 08:23:57 51°12.217 2°48.239 240.2 13.5 242 11.6
2011-11-10 08:24:02 51°12.208 2°48.213 240.5 13.4 242 11.5
2011-11-10 08:24:08 51°12.197 2°48.182 240.5 13.4 241 11.5
2011-11-10 08:24:12 51°12.19 2°48.162 238.9 13.3 239 11.5
2011-11-10 08:24:17 51°12.18 2°48.137 237.4 13.4 239 11.5
2011-11-10 08:24:22 51°12.172 2°48.11 237.7 13.4 242 11.5
2011-11-10 08:24:27 51°12.163 2°48.084 239.3 13.5 242 11.4
2011-11-10 08:24:32 51°12.155 2°48.057 241 13.5 244 11.5
2011-11-10 08:24:37 51°12.147 2°48.03 242.5 13.5 245 11.6
2011-11-10 08:24:42 51°12.139 2°48.003 243.4 13.4 246 11.6
2011-11-10 08:24:47 51°12.132 2°47.976 244.6 13.5 247 11.5
2011-11-10 08:24:52 51°12.125 2°47.948 245.4 13.5 248 11.6
2011-11-10 08:24:57 51°12.117 2°47.921 245.9 13.5 247 11.7
2011-11-10 08:25:02 51°12.11 2°47.893 246.1 13.5 248 11.5
2011-11-10 08:25:07 51°12.103 2°47.865 246.5 13.4 248 11.7
2011-11-10 08:25:12 51°12.096 2°47.838 246.8 13.5 248 11.6
2011-11-10 08:25:17 51°12.089 2°47.81 246.7 13.5 247 11.7
2011-11-10 08:25:22 51°12.082 2°47.783 246.4 13.5 247 11.7
2011-11-10 08:25:27 51°12.075 2°47.755 246.2 13.5 247 11.7
2011-11-10 08:25:32 51°12.067 2°47.728 246.1 13.4 247 11.5
2011-11-10 08:25:37 51°12.06 2°47.7 246.1 13.5 247 11.7
2011-11-10 08:25:42 51°12.053 2°47.673 245.9 13.5 247 11.6
2011-11-10 08:25:47 51°12.045 2°47.645 245.6 13.5 247 11.7
2011-11-10 08:25:53 51°12.036 2°47.613 245.3 13.5 246 11.8
2011-11-10 08:25:57 51°12.03 2°47.591 244.9 13.5 246 11.7
2011-11-10 08:26:02 51°12.022 2°47.564 244.5 13.5 245 11.8
2011-11-10 08:26:07 51°12.014 2°47.537 243.9 13.5 245 11.7
2011-11-10 08:26:12 51°12.006 2°47.51 243.6 13.5 244 11.7
2011-11-10 08:26:17 51°11.998 2°47.483 242.8 13.4 244 11.9
2011-11-10 08:26:22 51°11.989 2°47.457 242.4 13.5 243 11.8
2011-11-10 08:26:27 51°11.981 2°47.43 241.6 13.5 243 11.8
2011-11-10 08:26:32 51°11.972 2°47.403 241 13.5 243 11.9
2011-11-10 08:26:37 51°11.964 2°47.377 240.9 13.5 243 11.8
2011-11-10 08:26:42 51°11.955 2°47.35 241.4 13.5 243 11.9
2011-11-10 08:26:47 51°11.947 2°47.323 241.7 13.5 244 11.9
2011-11-10 08:26:53 51°11.937 2°47.291 241.8 13.5 244 11.6
2011-11-10 08:26:57 51°11.93 2°47.27 242 13.5 244 11.8
2011-11-10 08:27:02 51°11.922 2°47.243 242 13.5 243 11.9
2011-11-10 08:27:07 51°11.914 2°47.216 242 13.5 244 11.8
2011-11-10 08:27:12 51°11.905 2°47.19 241.9 13.5 243 11.9
2011-11-10 08:27:17 51°11.897 2°47.163 241.5 13.5 243 11.8
2011-11-10 08:27:22 51°11.888 2°47.136 241.3 13.5 243 11.8
2011-11-10 08:27:27 51°11.88 2°47.109 241.3 13.5 244 11.8
2011-11-10 08:27:32 51°11.871 2°47.082 241.9 13.5 244 11.8
2011-11-10 08:27:37 51°11.863 2°47.056 242.4 13.5 245 11.8
2011-11-10 08:27:42 51°11.856 2°47.028 243 13.5 245 11.8
2011-11-10 08:27:47 51°11.848 2°47.001 244 13.5 246 11.7
2011-11-10 08:27:53 51°11.839 2°46.968 244.4 13.5 247 11.6
2011-11-10 08:27:57 51°11.833 2°46.946 245.6 13.5 248 11.8
2011-11-10 08:28:02 51°11.826 2°46.919 245.9 13.5 247 11.9
2011-11-10 08:28:07 51°11.819 2°46.892 246 13.5 247 11.8
2011-11-10 08:28:12 51°11.812 2°46.864 246.1 13.5 247 11.9
2011-11-10 08:28:17 51°11.804 2°46.837 246.1 13.5 247 12
2011-11-10 08:28:22 51°11.797 2°46.809 245.7 13.5 246 11.8
2011-11-10 08:28:27 51°11.789 2°46.782 245 13.5 246 11.9
2011-11-10 08:28:32 51°11.782 2°46.755 244.8 13.5 246 11.8
2011-11-10 08:28:37 51°11.774 2°46.727 244.8 13.5 247 11.9
2011-11-10 08:28:42 51°11.767 2°46.7 245.2 13.5 247 11.9
2011-11-10 08:28:48 51°11.758 2°46.667 245.5 13.5 247 12.1
2011-11-10 08:28:53 51°11.751 2°46.639 245.6 13.5 246 12.1
2011-11-10 08:28:57 51°11.744 2°46.617 245.3 13.5 246 11.9
2011-11-10 08:29:02 51°11.737 2°46.59 244.9 13.5 246 12
2011-11-10 08:29:07 51°11.729 2°46.563 244.2 13.5 245 12
2011-11-10 08:29:12 51°11.72 2°46.537 243.2 13.5 244 12.1
2011-11-10 08:29:17 51°11.712 2°46.509 242.4 13.6 244 12
2011-11-10 08:29:22 51°11.703 2°46.483 241.5 13.6 242 11.9
2011-11-10 08:29:27 51°11.695 2°46.457 241 13.5 243 12.2
2011-11-10 08:29:32 51°11.686 2°46.43 240.9 13.6 242 11.9
2011-11-10 08:29:37 51°11.677 2°46.404 240.7 13.6 243 12.2
2011-11-10 08:29:42 51°11.668 2°46.377 240.7 13.6 242 12.1
2011-11-10 08:29:47 51°11.66 2°46.35 240.7 13.6 242 12.1
2011-11-10 08:29:52 51°11.651 2°46.324 240.6 13.5 242 12.1
2011-11-10 08:29:57 51°11.642 2°46.298 240.5 13.5 243 12
2011-11-10 08:30:02 51°11.634 2°46.271 240.8 13.5 243 12.1
2011-11-10 08:30:07 51°11.626 2°46.244 241.8 13.5 244 12.1
2011-11-10 08:30:12 51°11.617 2°46.217 242.1 13.5 244 11.8
2011-11-10 08:30:17 51°11.609 2°46.191 242.3 13.5 244 12
2011-11-10 08:30:22 51°11.601 2°46.164 242.5 13.5 244 12.1
2011-11-10 08:30:27 51°11.593 2°46.138 242.8 13.4 244 12
2011-11-10 08:30:32 51°11.585 2°46.11 243.2 13.4 245 12
2011-11-10 08:30:37 51°11.577 2°46.083 243.4 13.6 245 11.9
2011-11-10 08:30:42 51°11.569 2°46.056 243.7 13.5 245 11.5
2011-11-10 08:30:47 51°11.561 2°46.029 244 13.5 246 12
2011-11-10 08:30:53 51°11.552 2°45.996 244.3 13.5 246 11.9
2011-11-10 08:30:57 51°11.546 2°45.974 244.7 13.5 246 11.9
2011-11-10 08:31:02 51°11.538 2°45.947 245.1 13.5 247 11.9
2011-11-10 08:31:08 51°11.529 2°45.914 245.4 13.5 247 11.8
2011-11-10 08:31:12 51°11.523 2°45.893 245.4 13.5 247 11.8
2011-11-10 08:31:17 51°11.516 2°45.865 245.6 13.5 246 11.9
2011-11-10 08:31:22 51°11.508 2°45.838 245.4 13.5 246 11.8
2011-11-10 08:31:27 51°11.501 2°45.811 245 13.5 245 11.9
2011-11-10 08:31:33 51°11.492 2°45.779 244.7 13.4 246 11.9
2011-11-10 08:31:37 51°11.486 2°45.757 244.4 13.4 245 11.9
2011-11-10 08:31:42 51°11.478 2°45.73 243.9 13.5 245 11.8
2011-11-10 08:31:47 51°11.47 2°45.704 243.8 13.4 245 11.8
2011-11-10 08:31:52 51°11.462 2°45.677 243.8 13.4 245 11.8
2011-11-10 08:31:57 51°11.454 2°45.65 243.6 13.5 245 11.9
2011-11-10 08:32:02 51°11.446 2°45.623 243.6 13.4 245 11.8
2011-11-10 08:32:07 51°11.438 2°45.597 243.4 13.4 244 11.9
2011-11-10 08:32:12 51°11.43 2°45.57 243.4 13.4 244 11.8
2011-11-10 08:32:17 51°11.422 2°45.543 243.2 13.4 244 11.8
2011-11-10 08:32:22 51°11.413 2°45.517 242.9 13.4 244 11.8
2011-11-10 08:32:27 51°11.405 2°45.49 242.5 13.4 243 11.8
2011-11-10 08:32:32 51°11.397 2°45.463 242.3 13.4 243 11.8
2011-11-10 08:32:37 51°11.388 2°45.437 241.9 13.4 243 11.7
2011-11-10 08:32:42 51°11.38 2°45.411 241.4 13.4 242 11.7
2011-11-10 08:32:47 51°11.371 2°45.385 240.8 13.5 242 11.6
2011-11-10 08:32:52 51°11.362 2°45.359 240.6 13.4 242 11.7
2011-11-10 08:32:57 51°11.354 2°45.333 240.6 13.4 242 11.6
2011-11-10 08:33:02 51°11.345 2°45.306 240.6 13.4 242 11.6
2011-11-10 08:33:08 51°11.335 2°45.275 241 13.4 243 11.6
2011-11-10 08:33:12 51°11.329 2°45.254 241.8 13.3 244 11.5
2011-11-10 08:33:17 51°11.321 2°45.227 242.5 13.3 244 11.6
2011-11-10 08:33:22 51°11.313 2°45.201 242.9 13.2 244 11.6
2011-11-10 08:33:27 51°11.304 2°45.174 242.9 13.3 244 11.6
2011-11-10 08:33:33 51°11.295 2°45.143 242.8 13.3 244 11.5
2011-11-10 08:33:37 51°11.288 2°45.122 242.7 13.3 243 11.5
2011-11-10 08:33:42 51°11.28 2°45.095 242.5 13.3 244 11.5
2011-11-10 08:33:47 51°11.271 2°45.069 242.5 13.3 243 11.5
2011-11-10 08:33:52 51°11.263 2°45.042 242.3 13.4 243 11.4
2011-11-10 08:33:57 51°11.255 2°45.016 242 13.4 244 11.4
2011-11-10 08:34:02 51°11.247 2°44.99 242 13.3 244 11.4
2011-11-10 08:34:07 51°11.238 2°44.963 242.7 13.4 245 11.4
2011-11-10 08:34:12 51°11.231 2°44.936 244.1 13.4 246 11.4
2011-11-10 08:34:17 51°11.224 2°44.908 245.4 13.5 247 11.4
2011-11-10 08:34:22 51°11.217 2°44.882 246.1 13.3 248 11.3
2011-11-10 08:34:27 51°11.21 2°44.854 247 13.3 249 11.4
2011-11-10 08:34:32 51°11.203 2°44.827 247.6 13.4 249 11.4
2011-11-10 08:34:37 51°11.197 2°44.799 248.3 13.4 249 11.4
2011-11-10 08:34:42 51°11.19 2°44.771 249.3 13.4 250 11.4
2011-11-10 08:34:47 51°11.184 2°44.743 249.8 13.4 250 11.4
2011-11-10 08:34:52 51°11.178 2°44.715 250.4 13.4 251 11.4
2011-11-10 08:34:57 51°11.172 2°44.687 250.5 13.4 251 11.4
2011-11-10 08:35:02 51°11.166 2°44.66 250.1 13.4 250 11.4
2011-11-10 08:35:08 51°11.158 2°44.626 249.8 13.4 250 11.4
2011-11-10 08:35:12 51°11.153 2°44.604 249.5 13.4 250 11.4
2011-11-10 08:35:17 51°11.147 2°44.576 249.3 13.4 250 11.4
2011-11-10 08:35:22 51°11.14 2°44.549 249.3 13.4 250 11.4
2011-11-10 08:35:28 51°11.133 2°44.515 249.3 13.4 250 11.4
2011-11-10 08:35:33 51°11.126 2°44.488 249.3 13.4 250 11.4
2011-11-10 08:35:37 51°11.121 2°44.465 249.3 13.4 250 11.4
2011-11-10 08:35:42 51°11.115 2°44.438 249.3 13.4 250 11.4
2011-11-10 08:35:47 51°11.108 2°44.41 249.2 13.4 249 11.3
2011-11-10 08:35:52 51°11.101 2°44.382 248.7 13.5 249 11.3
2011-11-10 08:35:57 51°11.094 2°44.355 248.2 13.4 248 11.3
2011-11-10 08:36:02 51°11.087 2°44.328 247.3 13.5 247 11.2
2011-11-10 08:36:07 51°11.08 2°44.3 246.8 13.4 247 11.3
2011-11-10 08:36:12 51°11.073 2°44.273 246.2 13.4 246 11.3
2011-11-10 08:36:17 51°11.065 2°44.246 245.7 13.4 247 11.3
2011-11-10 08:36:22 51°11.058 2°44.219 245.5 13.4 246 11.3
2011-11-10 08:36:27 51°11.05 2°44.193 244.7 13.4 245 11.3
2011-11-10 08:36:32 51°11.042 2°44.166 243.5 13.4 244 11.3
2011-11-10 08:36:37 51°11.034 2°44.139 243.6 13.4 246 11.2
2011-11-10 08:36:42 51°11.027 2°44.112 244.6 13.4 246 11.3
2011-11-10 08:36:47 51°11.02 2°44.085 245.6 13.3 248 11.2
2011-11-10 08:36:52 51°11.013 2°44.058 246.4 13.4 248 11.3
2011-11-10 08:36:57 51°11.006 2°44.03 247.4 13.4 249 11.3
2011-11-10 08:37:02 51°11 2°44.002 248.5 13.4 249 11.3
2011-11-10 08:37:07 51°10.993 2°43.975 249 13.3 250 11.2
2011-11-10 08:37:12 51°10.987 2°43.947 249.5 13.4 251 11.2
2011-11-10 08:37:17 51°10.981 2°43.919 250 13.4 251 11.3
2011-11-10 08:37:22 51°10.975 2°43.891 250.7 13.3 252 11.4
2011-11-10 08:37:27 51°10.97 2°43.863 251.7 13.3 253 11.3
2011-11-10 08:37:33 51°10.963 2°43.829 252 13.4 252 11.3
2011-11-10 08:37:37 51°10.958 2°43.807 251.7 13.4 252 11.3
2011-11-10 08:37:42 51°10.952 2°43.779 251.3 13.3 252 11.3
2011-11-10 08:37:47 51°10.946 2°43.751 251.3 13.4 251 11.3
2011-11-10 08:37:52 51°10.94 2°43.724 251.2 13.2 251 11.3
2011-11-10 08:37:57 51°10.934 2°43.695 251 13.3 251 11.3
2011-11-10 08:38:02 51°10.928 2°43.668 251 13.3 251 11.4
2011-11-10 08:38:07 51°10.922 2°43.64 250.7 13.3 251 11.3
2011-11-10 08:38:12 51°10.916 2°43.612 250.5 13.3 251 11.3
2011-11-10 08:38:17 51°10.91 2°43.584 250.2 13.4 250 11.3
2011-11-10 08:38:22 51°10.904 2°43.556 249.9 13.3 250 11.3
2011-11-10 08:38:27 51°10.897 2°43.529 249.8 13.3 250 11.3
2011-11-10 08:38:32 51°10.891 2°43.501 249.7 13.3 250 11.3
2011-11-10 08:38:37 51°10.885 2°43.474 249.8 13.3 250 11.4
2011-11-10 08:38:42 51°10.878 2°43.446 249.8 13.3 250 11.4
2011-11-10 08:38:47 51°10.872 2°43.418 249.8 13.3 250 11.3
2011-11-10 08:38:52 51°10.866 2°43.391 249.8 13.3 250 11.4
2011-11-10 08:38:57 51°10.859 2°43.363 249.8 13.2 250 11.4
2011-11-10 08:39:02 51°10.853 2°43.335 249.8 13.2 250 11.3
2011-11-10 08:39:07 51°10.847 2°43.308 249.4 13.3 249 11.4
2011-11-10 08:39:12 51°10.84 2°43.28 249.1 13.4 249 11.3
2011-11-10 08:39:17 51°10.833 2°43.253 248.5 13.3 248 11.3
2011-11-10 08:39:22 51°10.827 2°43.226 247.8 13.3 249 11.3
2011-11-10 08:39:27 51°10.819 2°43.199 247.3 13.2 248 11.3
2011-11-10 08:39:33 51°10.811 2°43.166 247 13.3 248 11.3
2011-11-10 08:39:37 51°10.806 2°43.144 247.1 13.3 248 11.3
2011-11-10 08:39:42 51°10.799 2°43.117 247.2 13.3 248 11.3
2011-11-10 08:39:48 51°10.791 2°43.085 247.6 13.3 248 11.3
2011-11-10 08:39:53 51°10.784 2°43.057 247.9 13.2 249 11.3
2011-11-10 08:39:57 51°10.779 2°43.035 248.3 13.2 249 11.3
2011-11-10 08:40:02 51°10.772 2°43.008 248.3 13.3 249 11.3
2011-11-10 08:40:08 51°10.764 2°42.975 248.3 13.3 249 11.3
2011-11-10 08:40:12 51°10.758 2°42.954 248.2 13.3 249 11.3
2011-11-10 08:40:17 51°10.752 2°42.926 248.1 13.2 249 11.3
2011-11-10 08:40:22 51°10.745 2°42.899 248.3 13.2 249 11.3
2011-11-10 08:40:27 51°10.739 2°42.872 248.3 13.2 248 11.3
2011-11-10 08:40:33 51°10.73 2°42.839 247.5 13.2 247 11.3
2011-11-10 08:40:37 51°10.724 2°42.818 246 13.2 246 11.3
2011-11-10 08:40:42 51°10.716 2°42.792 245.1 13.2 246 11.2
2011-11-10 08:40:47 51°10.709 2°42.765 244.7 13.2 246 11.3
2011-11-10 08:40:52 51°10.701 2°42.738 244.7 13.2 246 11.2
2011-11-10 08:40:57 51°10.694 2°42.712 244.8 13.2 246 11.3
2011-11-10 08:41:02 51°10.686 2°42.686 244.9 13.2 246 11.3
2011-11-10 08:41:07 51°10.679 2°42.659 245 13.2 246 11.2
2011-11-10 08:41:12 51°10.672 2°42.633 245.2 13.1 246 11.2
2011-11-10 08:41:17 51°10.664 2°42.606 245.3 13.1 246 11.2
2011-11-10 08:41:22 51°10.657 2°42.579 245.5 13.1 246 11.2
2011-11-10 08:41:27 51°10.65 2°42.553 245.5 13.1 247 11.1
2011-11-10 08:41:32 51°10.643 2°42.526 245.8 13.1 247 11.2
2011-11-10 08:41:37 51°10.636 2°42.499 246.2 13.1 247 11.2
2011-11-10 08:41:42 51°10.629 2°42.472 246.3 13.2 247 11.1
2011-11-10 08:41:47 51°10.622 2°42.445 246.4 13.2 248 11.1
2011-11-10 08:41:52 51°10.615 2°42.418 246.5 13.2 248 11.2
2011-11-10 08:41:57 51°10.607 2°42.392 246.5 13.1 247 11.2
2011-11-10 08:42:02 51°10.6 2°42.365 246.2 13.1 247 11.2
2011-11-10 08:42:08 51°10.592 2°42.333 246 13.1 247 11.1
2011-11-10 08:42:12 51°10.586 2°42.312 246 13.1 248 11.2
2011-11-10 08:42:17 51°10.579 2°42.285 246.4 13.1 248 11.2
2011-11-10 08:42:22 51°10.572 2°42.258 246.9 13.1 248 11.2
2011-11-10 08:42:27 51°10.566 2°42.232 247.4 13.1 248 11.1
2011-11-10 08:42:33 51°10.558 2°42.199 247.5 13.1 248 11.1
2011-11-10 08:42:37 51°10.552 2°42.178 247.5 13.1 248 11.1
2011-11-10 08:42:42 51°10.545 2°42.151 247.5 13.1 248 11.1
2011-11-10 08:42:47 51°10.539 2°42.124 247.5 13.1 248 11.2
2011-11-10 08:42:52 51°10.532 2°42.098 247.5 13.1 248 11.1
2011-11-10 08:42:57 51°10.525 2°42.071 247.4 13.1 248 11.1
2011-11-10 08:43:02 51°10.518 2°42.044 247.2 13.1 248 11.1
2011-11-10 08:43:07 51°10.512 2°42.017 247.4 13.1 249 11.1
2011-11-10 08:43:12 51°10.505 2°41.99 247.7 13.1 248 11.2
2011-11-10 08:43:17 51°10.499 2°41.963 248.3 13.1 250 11.2
2011-11-10 08:43:22 51°10.492 2°41.936 248.9 13.1 250 11.2
2011-11-10 08:43:27 51°10.486 2°41.909 249.2 13.1 250 11.1